Time;durP1;ratioP1;P1;durP2;ratioP2;P2;SDS_P1;SDS_P2;PMS_P1;PMS_P2;Temp;Humidity;BMP_temperature;BMP_pressure;BME280_temperature;BME280_humidity;BME280_pressure;Samples;Min_cycle;Max_cycle;Signal;HPM_P1;HPM_P2
2023/11/09 00:00:25;;;;;;;3.83;2.30;;;;;;;;;;1035483;28;20112;-72
2023/11/09 00:00:56;;;;;;;1.42;1.30;;;;;;;;;;1036096;28;20022;-72
2023/11/09 00:01:26;;;;;;;0.68;0.68;;;;;;;;;;1035794;28;20568;-72
2023/11/09 00:01:56;;;;;;;5.20;1.88;;;;;;;;;;1036190;28;20025;-72
2023/11/09 00:02:27;;;;;;;2.13;1.95;;;;;;;;;;1035949;28;20426;-72
2023/11/09 00:02:57;;;;;;;0.50;0.50;;;;;;;;;;1036210;28;20045;-72
2023/11/09 00:03:28;;;;;;;6.03;1.52;;;;;;;;;;1035422;28;20028;-72
2023/11/09 00:03:59;;;;;;;2.00;1.90;;;;;;;;;;1035874;28;20030;-72
2023/11/09 00:04:29;;;;;;;2.97;1.90;;;;;;;;;;1035600;28;20099;-72
2023/11/09 00:04:59;;;;;;;0.52;0.52;;;;;;;;;;1035720;28;20083;-72
2023/11/09 00:05:30;;;;;;;1.42;1.33;;;;;;;;;;1035455;28;20112;-72
2023/11/09 00:06:00;;;;;;;0.50;0.50;;;;;;;;;;1035844;28;20429;-72
2023/11/09 00:06:31;;;;;;;1.23;1.17;;;;;;;;;;1035548;28;20026;-72
2023/11/09 00:07:01;;;;;;;0.28;0.28;;;;;;;;;;1036077;28;20029;-72
2023/11/09 00:07:32;;;;;;;2.50;2.30;;;;;;;;;;1035773;28;20034;-72
2023/11/09 00:08:03;;;;;;;4.95;2.83;;;;;;;;;;1036223;28;20572;-72
2023/11/09 00:08:33;;;;;;;0.80;0.80;;;;;;;;;;1035953;28;20042;-72
2023/11/09 00:09:04;;;;;;;2.10;1.80;;;;;;;;;;1035124;28;20032;-72
2023/11/09 00:09:35;;;;;;;0.88;0.88;;;;;;;;;;1034803;28;20073;-72
2023/11/09 00:10:06;;;;;;;1.05;1.05;;;;;;;;;;1036245;28;20022;-72
2023/11/09 00:10:37;;;;;;;4.88;2.38;;;;;;;;;;1035919;28;20040;-73
2023/11/09 00:11:08;;;;;;;1.58;1.48;;;;;;;;;;1035676;28;20081;-73
2023/11/09 00:11:38;;;;;;;36.30;3.03;;;;;;;;;;1035486;28;20517;-73
2023/11/09 00:12:10;;;;;;;2.60;2.47;;;;;;;;;;1035738;28;20026;-73
2023/11/09 00:12:41;;;;;;;1.27;1.17;;;;;;;;;;1035621;28;20022;-73
2023/11/09 00:13:12;;;;;;;2.08;1.95;;;;;;;;;;1035650;28;20115;-73
2023/11/09 00:13:43;;;;;;;1.67;0.93;;;;;;;;;;1034947;28;20107;-73
2023/11/09 00:14:16;;;;;;;0.73;0.73;;;;;;;;;;1035787;28;20021;-73
2023/11/09 00:14:49;;;;;;;7.28;1.92;;;;;;;;;;1035689;28;20524;-73
2023/11/09 00:15:20;;;;;;;0.50;0.50;;;;;;;;;;1034832;28;20112;-73
2023/11/09 00:15:50;;;;;;;0.80;0.80;;;;;;;;;;1035623;28;20028;-73
2023/11/09 00:16:21;;;;;;;3.47;2.13;;;;;;;;;;1035529;28;20076;-73
2023/11/09 00:16:51;;;;;;;1.30;1.25;;;;;;;;;;1035810;28;20029;-73
2023/11/09 00:17:22;;;;;;;2.83;1.27;;;;;;;;;;1033287;28;20485;-73
2023/11/09 00:17:53;;;;;;;1.02;0.93;;;;;;;;;;1035847;28;20106;-72
2023/11/09 00:18:23;;;;;;;0.82;0.82;;;;;;;;;;1031426;28;20482;-72
2023/11/09 00:18:54;;;;;;;7.18;3.72;;;;;;;;;;1031945;28;20034;-72
2023/11/09 00:19:25;;;;;;;1.10;1.00;;;;;;;;;;1035441;28;20022;-72
2023/11/09 00:19:55;;;;;;;1.60;1.50;;;;;;;;;;1035929;28;20006;-72
2023/11/09 00:20:27;;;;;;;9.13;3.67;;;;;;;;;;1035544;28;20036;-72
2023/11/09 00:20:58;;;;;;;3.72;3.42;;;;;;;;;;1035811;28;20435;-72
2023/11/09 00:21:28;;;;;;;1.48;1.38;;;;;;;;;;1035413;28;20025;-72
2023/11/09 00:21:59;;;;;;;1.65;1.55;;;;;;;;;;1035884;28;20444;-72
2023/11/09 00:22:29;;;;;;;2.30;2.08;;;;;;;;;;1035927;28;20188;-72
2023/11/09 00:23:00;;;;;;;1.25;1.17;;;;;;;;;;1036069;28;20022;-72
2023/11/09 00:23:31;;;;;;;2.92;1.95;;;;;;;;;;1035723;28;20544;-72
2023/11/09 00:24:03;;;;;;;1.75;1.65;;;;;;;;;;1036065;28;20032;-72
2023/11/09 00:24:33;;;;;;;20.83;1.48;;;;;;;;;;1034860;28;20029;-72
2023/11/09 00:25:04;;;;;;;2.58;2.38;;;;;;;;;;1035076;28;20449;-72
2023/11/09 00:25:35;;;;;;;12.32;4.88;;;;;;;;;;1034664;28;20026;-72
2023/11/09 00:26:06;;;;;;;5.18;4.05;;;;;;;;;;1035737;28;20442;-72
2023/11/09 00:26:37;;;;;;;2.17;1.75;;;;;;;;;;1035511;28;20621;-72
2023/11/09 00:27:16;;;;;;;0.55;0.55;;;;;;;;;;1035221;28;20056;-72
2023/11/09 00:27:46;;;;;;;1.45;1.05;;;;;;;;;;1035634;28;20574;-72
2023/11/09 00:28:17;;;;;;;1.38;1.05;;;;;;;;;;1035844;28;20089;-72
2023/11/09 00:28:50;;;;;;;8.57;2.70;;;;;;;;;;1035981;28;20557;-72
2023/11/09 00:29:20;;;;;;;13.13;3.10;;;;;;;;;;1034991;28;20017;-72
2023/11/09 00:29:51;;;;;;;1.02;1.02;;;;;;;;;;1036093;28;20030;-72
2023/11/09 00:30:21;;;;;;;2.80;2.55;;;;;;;;;;1035962;28;20030;-72
2023/11/09 00:30:52;;;;;;;4.18;0.95;;;;;;;;;;1036090;28;20568;-72
2023/11/09 00:31:23;;;;;;;1.35;1.25;;;;;;;;;;1035770;28;20028;-72
2023/11/09 00:31:53;;;;;;;4.47;1.75;;;;;;;;;;1036122;28;20080;-72
2023/11/09 00:32:24;;;;;;;1.77;1.67;;;;;;;;;;1035846;28;20030;-72
2023/11/09 00:32:54;;;;;;;4.43;1.63;;;;;;;;;;1036101;28;20385;-72
2023/11/09 00:33:25;;;;;;;2.38;2.17;;;;;;;;;;1035722;28;20364;-71
2023/11/09 00:33:55;;;;;;;6.53;2.25;;;;;;;;;;1036082;28;20116;-71
2023/11/09 00:34:26;;;;;;;4.50;2.75;;;;;;;;;;1035854;28;20428;-71
2023/11/09 00:34:56;;;;;;;3.10;1.73;;;;;;;;;;1036080;28;20033;-72
2023/11/09 00:35:29;;;;;;;3.15;2.95;;;;;;;;;;1035052;28;20587;-72
2023/11/09 00:36:00;;;;;;;4.57;1.48;;;;;;;;;;1035855;28;20053;-72
2023/11/09 00:36:31;;;;;;;3.05;2.10;;;;;;;;;;1035746;28;20430;-71
2023/11/09 00:37:04;;;;;;;1.23;1.17;;;;;;;;;;1035874;28;20026;-71
2023/11/09 00:37:37;;;;;;;2.03;1.85;;;;;;;;;;1035300;28;20379;-72
2023/11/09 00:38:08;;;;;;;0.80;0.80;;;;;;;;;;1035693;28;20052;-72
2023/11/09 00:38:39;;;;;;;12.35;2.17;;;;;;;;;;1033412;28;20456;-72
2023/11/09 00:39:12;;;;;;;1.73;1.17;;;;;;;;;;1034430;28;20021;-72
2023/11/09 00:39:42;;;;;;;1.83;1.73;;;;;;;;;;1035398;28;20084;-72
2023/11/09 00:40:13;;;;;;;5.57;2.88;;;;;;;;;;1035747;28;20075;-72
2023/11/09 00:40:43;;;;;;;1.13;0.95;;;;;;;;;;1035877;28;20120;-71
2023/11/09 00:41:14;;;;;;;1.48;1.38;;;;;;;;;;1035752;28;20014;-71
2023/11/09 00:41:45;;;;;;;2.42;2.17;;;;;;;;;;1035799;28;20363;-71
2023/11/09 00:42:15;;;;;;;1.10;1.10;;;;;;;;;;1035809;28;20032;-72
2023/11/09 00:42:46;;;;;;;26.70;5.10;;;;;;;;;;1035815;28;20484;-72
2023/11/09 00:43:16;;;;;;;4.10;2.88;;;;;;;;;;1035747;28;20029;-72
2023/11/09 00:43:47;;;;;;;2.00;1.13;;;;;;;;;;1035802;28;20030;-72
2023/11/09 00:44:17;;;;;;;1.88;1.70;;;;;;;;;;1035853;28;20108;-70
2023/11/09 00:44:48;;;;;;;0.57;0.57;;;;;;;;;;1035923;28;20030;-71
2023/11/09 00:45:18;;;;;;;1.65;1.45;;;;;;;;;;1034694;28;20021;-71
2023/11/09 00:45:49;;;;;;;2.13;1.85;;;;;;;;;;1034809;28;20052;-72
2023/11/09 00:46:19;;;;;;;2.00;1.77;;;;;;;;;;1035743;28;20057;-72
2023/11/09 00:46:50;;;;;;;4.28;1.65;;;;;;;;;;1035549;28;20060;-72
2023/11/09 00:47:21;;;;;;;2.35;0.80;;;;;;;;;;1035320;28;20124;-72
2023/11/09 00:47:52;;;;;;;0.55;0.55;;;;;;;;;;1035691;28;20060;-72
2023/11/09 00:48:22;;;;;;;1.27;0.85;;;;;;;;;;1034649;28;20471;-72
2023/11/09 00:48:53;;;;;;;4.95;0.88;;;;;;;;;;1035566;28;20025;-72
2023/11/09 00:49:23;;;;;;;18.73;1.70;;;;;;;;;;1035251;28;20589;-72
2023/11/09 00:49:54;;;;;;;3.85;1.98;;;;;;;;;;1035699;28;20026;-72
2023/11/09 00:50:24;;;;;;;1.25;1.25;;;;;;;;;;1035518;28;20026;-72
2023/11/09 00:50:55;;;;;;;1.48;1.38;;;;;;;;;;1035415;28;20018;-72
2023/11/09 00:51:26;;;;;;;1.95;1.20;;;;;;;;;;1035463;28;20486;-72
2023/11/09 00:51:57;;;;;;;0.73;0.73;;;;;;;;;;1035980;28;20025;-72
2023/11/09 00:52:27;;;;;;;0.82;0.82;;;;;;;;;;1035380;28;20030;-72
2023/11/09 00:52:58;;;;;;;2.22;1.58;;;;;;;;;;1035451;28;20477;-71
2023/11/09 00:53:28;;;;;;;1.67;1.40;;;;;;;;;;1035252;28;20021;-71
2023/11/09 00:53:59;;;;;;;2.72;1.58;;;;;;;;;;1035590;28;20037;-71
2023/11/09 00:54:29;;;;;;;4.18;2.65;;;;;;;;;;1035355;28;20014;-71
2023/11/09 00:55:00;;;;;;;1.05;1.05;;;;;;;;;;1033488;28;20018;-71
2023/11/09 00:55:30;;;;;;;1.40;1.27;;;;;;;;;;1033174;28;20394;-71
2023/11/09 00:56:01;;;;;;;5.88;2.80;;;;;;;;;;1035668;28;20033;-71
2023/11/09 00:56:31;;;;;;;0.60;0.60;;;;;;;;;;1030965;28;20435;-71
2023/11/09 00:57:02;;;;;;;3.03;2.72;;;;;;;;;;1031334;28;20057;-71
2023/11/09 00:57:33;;;;;;;11.50;3.13;;;;;;;;;;1034501;28;20088;-71
2023/11/09 00:58:03;;;;;;;1.17;1.17;;;;;;;;;;1035394;28;20033;-71
2023/11/09 00:58:35;;;;;;;1.70;1.58;;;;;;;;;;1035433;28;20125;-71
2023/11/09 00:59:06;;;;;;;2.45;1.13;;;;;;;;;;1035122;28;20040;-71
2023/11/09 00:59:37;;;;;;;1.65;1.55;;;;;;;;;;1034712;28;20116;-71
2023/11/09 01:00:08;;;;;;;2.58;2.38;;;;;;;;;;1035574;28;20030;-71
2023/11/09 01:00:38;;;;;;;5.28;3.50;;;;;;;;;;1035163;28;20054;-71
2023/11/09 01:01:09;;;;;;;1.67;1.05;;;;;;;;;;1035881;28;20398;-71
2023/11/09 01:01:39;;;;;;;2.03;1.92;;;;;;;;;;1035410;28;20068;-71
2023/11/09 01:02:11;;;;;;;1.95;1.70;;;;;;;;;;1036025;28;20026;-71
2023/11/09 01:02:44;;;;;;;0.85;0.80;;;;;;;;;;1035184;28;20382;-71
2023/11/09 01:03:14;;;;;;;1.08;0.82;;;;;;;;;;1032128;28;20148;-71
2023/11/09 01:03:45;;;;;;;17.58;1.75;;;;;;;;;;1033284;28;20120;-71
2023/11/09 01:04:15;;;;;;;12.82;1.17;;;;;;;;;;1033627;28;20090;-71
2023/11/09 01:04:46;;;;;;;6.60;2.75;;;;;;;;;;1035369;28;20018;-71
2023/11/09 01:05:16;;;;;;;4.25;1.77;;;;;;;;;;1035213;28;20028;-71
2023/11/09 01:05:48;;;;;;;1.00;0.95;;;;;;;;;;1031274;28;20022;-71
2023/11/09 01:06:18;;;;;;;2.05;1.95;;;;;;;;;;1033534;28;20037;-71
2023/11/09 01:06:49;;;;;;;3.58;1.13;;;;;;;;;;1034482;28;20064;-71
2023/11/09 01:07:19;;;;;;;14.38;3.20;;;;;;;;;;1033110;28;20049;-71
2023/11/09 01:07:50;;;;;;;1.75;1.65;;;;;;;;;;1034460;28;20510;-71
2023/11/09 01:08:22;;;;;;;1.13;1.02;;;;;;;;;;1034527;28;20030;-71
2023/11/09 01:08:52;;;;;;;1.23;1.23;;;;;;;;;;1035469;28;20104;-71
2023/11/09 01:09:23;;;;;;;0.93;0.93;;;;;;;;;;1035007;28;20623;-70
2023/11/09 01:09:54;;;;;;;0.40;0.40;;;;;;;;;;1035494;28;20510;-70
2023/11/09 01:10:24;;;;;;;0.80;0.80;;;;;;;;;;1035408;28;20022;-70
2023/11/09 01:10:55;;;;;;;0.32;0.32;;;;;;;;;;1035812;28;20121;-71
2023/11/09 01:11:26;;;;;;;13.25;3.08;;;;;;;;;;1035137;28;20017;-71
2023/11/09 01:11:57;;;;;;;1.35;1.25;;;;;;;;;;1035327;28;20030;-71
2023/11/09 01:12:28;;;;;;;0.15;0.15;;;;;;;;;;1035389;28;20099;-71
2023/11/09 01:13:01;;;;;;;1.08;1.02;;;;;;;;;;1032424;28;20600;-71
2023/11/09 01:13:32;;;;;;;1.20;1.13;;;;;;;;;;1030521;28;20034;-71
2023/11/09 01:14:03;;;;;;;0.50;0.50;;;;;;;;;;1031355;28;20049;-71
2023/11/09 01:14:35;;;;;;;1.00;1.00;;;;;;;;;;1031637;28;20030;-71
2023/11/09 01:15:06;;;;;;;1.05;0.73;;;;;;;;;;1030801;28;20022;-71
2023/11/09 01:15:36;;;;;;;2.13;1.85;;;;;;;;;;1033117;28;20128;-71
2023/11/09 01:16:08;;;;;;;2.92;2.75;;;;;;;;;;1032930;28;20093;-71
2023/11/09 01:16:39;;;;;;;0.38;0.38;;;;;;;;;;1033285;28;20026;-71
2023/11/09 01:17:11;;;;;;;2.22;2.13;;;;;;;;;;1035316;28;20105;-71
2023/11/09 01:17:59;;;;;;;2.80;2.47;;;;;;;;;;1035222;28;20036;-71
2023/11/09 01:18:29;;;;;;;2.55;2.35;;;;;;;;;;1035093;28;20030;-70
2023/11/09 01:19:01;;;;;;;1.73;1.58;;;;;;;;;;1034330;28;20080;-70
2023/11/09 01:19:32;;;;;;;1.13;1.10;;;;;;;;;;1035410;28;20033;-71
2023/11/09 01:20:02;;;;;;;1.58;1.48;;;;;;;;;;1035998;28;20036;-72
2023/11/09 01:20:33;;;;;;;14.40;3.35;;;;;;;;;;1035194;28;20542;-72
2023/11/09 01:21:04;;;;;;;0.20;0.20;;;;;;;;;;1034499;28;20587;-71
2023/11/09 01:21:36;;;;;;;2.45;2.25;;;;;;;;;;1035247;28;20026;-71
2023/11/09 01:22:06;;;;;;;1.52;1.42;;;;;;;;;;1035762;28;20096;-71
2023/11/09 01:22:37;;;;;;;0.75;0.75;;;;;;;;;;1035172;28;20482;-71
2023/11/09 01:23:09;;;;;;;0.80;0.80;;;;;;;;;;1034425;28;20030;-71
2023/11/09 01:23:40;;;;;;;1.58;1.48;;;;;;;;;;1033779;28;20029;-71
2023/11/09 01:24:10;;;;;;;1.27;1.25;;;;;;;;;;1034029;28;20120;-72
2023/11/09 01:24:41;;;;;;;0.30;0.30;;;;;;;;;;1032916;28;20030;-71
2023/11/09 01:25:11;;;;;;;0.60;0.60;;;;;;;;;;1031574;28;20038;-71
2023/11/09 01:25:43;;;;;;;8.13;2.35;;;;;;;;;;1032771;28;20030;-71
2023/11/09 01:26:14;;;;;;;0.40;0.40;;;;;;;;;;1029558;28;20117;-71
2023/11/09 01:26:44;;;;;;;1.25;1.15;;;;;;;;;;1030430;28;20031;-71
2023/11/09 01:27:15;;;;;;;0.55;0.55;;;;;;;;;;1033455;28;20030;-71
2023/11/09 01:27:45;;;;;;;4.38;4.07;;;;;;;;;;1034568;28;20029;-71
2023/11/09 01:28:17;;;;;;;1.05;1.05;;;;;;;;;;1032390;28;20026;-71
2023/11/09 01:28:49;;;;;;;1.30;1.25;;;;;;;;;;1033931;28;20112;-71
2023/11/09 01:29:21;;;;;;;1.35;1.27;;;;;;;;;;1033910;28;20026;-71
2023/11/09 01:29:52;;;;;;;1.45;1.35;;;;;;;;;;1030443;28;20034;-71
2023/11/09 01:30:22;;;;;;;0.57;0.57;;;;;;;;;;1027991;28;20029;-71
2023/11/09 01:30:53;;;;;;;4.15;2.60;;;;;;;;;;1029802;28;20494;-71
2023/11/09 01:31:23;;;;;;;2.20;1.48;;;;;;;;;;1030516;28;20112;-71
2023/11/09 01:31:54;;;;;;;1.60;1.45;;;;;;;;;;1034905;28;20113;-71
2023/11/09 01:32:25;;;;;;;1.75;1.65;;;;;;;;;;1027840;28;20026;-72
2023/11/09 01:32:56;;;;;;;0.75;0.75;;;;;;;;;;1032657;28;20492;-71
2023/11/09 01:33:28;;;;;;;1.75;1.20;;;;;;;;;;1031524;28;20067;-71
2023/11/09 01:33:58;;;;;;;0.10;0.10;;;;;;;;;;1033463;28;20038;-71
2023/11/09 01:34:29;;;;;;;3.95;1.30;;;;;;;;;;1034612;28;20030;-72
2023/11/09 01:34:59;;;;;;;1.27;1.27;;;;;;;;;;1034091;28;20469;-71
2023/11/09 01:35:31;;;;;;;1.20;1.13;;;;;;;;;;1032158;28;20164;-71
2023/11/09 01:36:02;;;;;;;1.38;1.33;;;;;;;;;;1033457;28;20029;-71
2023/11/09 01:36:32;;;;;;;0.88;0.85;;;;;;;;;;1033185;28;20029;-71
2023/11/09 01:37:03;;;;;;;0.20;0.20;;;;;;;;;;1033514;28;20025;-71
2023/11/09 01:37:34;;;;;;;2.50;1.52;;;;;;;;;;1032706;28;20600;-71
2023/11/09 01:38:05;;;;;;;0.68;0.60;;;;;;;;;;1033659;28;20076;-71
2023/11/09 01:38:36;;;;;;;1.90;1.80;;;;;;;;;;1032414;28;20475;-72
2023/11/09 01:39:07;;;;;;;0.77;0.38;;;;;;;;;;1033134;28;20025;-72
2023/11/09 01:39:40;;;;;;;0.68;0.68;;;;;;;;;;1033346;28;20049;-72
2023/11/09 01:40:11;;;;;;;1.02;1.02;;;;;;;;;;1031257;28;20037;-72
2023/11/09 01:40:41;;;;;;;0.85;0.85;;;;;;;;;;1028728;28;20436;-73
2023/11/09 01:41:15;;;;;;;2.70;1.50;;;;;;;;;;1024675;28;20038;-73
2023/11/09 01:41:46;;;;;;;0.88;0.88;;;;;;;;;;1029517;28;20407;-73
2023/11/09 01:42:17;;;;;;;1.23;1.17;;;;;;;;;;1029604;28;20030;-73
2023/11/09 01:42:48;;;;;;;0.63;0.63;;;;;;;;;;1030066;28;20065;-73
2023/11/09 01:43:21;;;;;;;0.90;0.90;;;;;;;;;;1028888;28;20014;-73
2023/11/09 01:43:58;;;;;;;2.33;2.13;;;;;;;;;;1033880;28;20036;-72
2023/11/09 01:44:30;;;;;;;0.32;0.32;;;;;;;;;;1031873;28;20030;-72
2023/11/09 01:45:01;;;;;;;2.22;2.03;;;;;;;;;;1034262;28;20026;-72
2023/11/09 01:45:31;;;;;;;5.20;4.72;;;;;;;;;;1033316;28;20080;-72
2023/11/09 01:46:04;;;;;;;2.25;2.08;;;;;;;;;;1031937;28;20026;-72
2023/11/09 01:46:37;;;;;;;0.60;0.60;;;;;;;;;;1034774;28;20274;-73
2023/11/09 01:47:08;;;;;;;1.00;0.38;;;;;;;;;;1034628;28;20091;-72
2023/11/09 01:47:38;;;;;;;0.52;0.52;;;;;;;;;;1037655;28;20075;-72
2023/11/09 01:48:09;;;;;;;3.17;2.28;;;;;;;;;;1033096;28;20410;-71
2023/11/09 01:48:39;;;;;;;0.38;0.38;;;;;;;;;;1033002;28;20136;-71
2023/11/09 01:49:11;;;;;;;2.00;1.85;;;;;;;;;;1032511;28;20021;-71
2023/11/09 01:49:43;;;;;;;0.20;0.20;;;;;;;;;;1034279;28;20091;-72
2023/11/09 01:50:15;;;;;;;1.52;1.45;;;;;;;;;;1034391;28;20080;-72
2023/11/09 01:50:47;;;;;;;1.80;1.65;;;;;;;;;;1031543;28;20033;-71
2023/11/09 01:51:17;;;;;;;3.50;1.90;;;;;;;;;;1033728;28;20160;-71
2023/11/09 01:51:49;;;;;;;1.65;1.50;;;;;;;;;;1034119;28;20080;-71
2023/11/09 01:52:19;;;;;;;4.88;4.47;;;;;;;;;;1034248;28;20036;-71
2023/11/09 01:52:50;;;;;;;0.77;0.75;;;;;;;;;;1038496;28;20028;-71
2023/11/09 01:53:20;;;;;;;1.33;0.73;;;;;;;;;;1035136;28;20037;-71
2023/11/09 01:53:51;;;;;;;1.70;1.48;;;;;;;;;;1034941;28;20509;-72
2023/11/09 01:54:22;;;;;;;0.85;0.85;;;;;;;;;;1030666;28;20034;-72
2023/11/09 01:54:53;;;;;;;1.20;1.13;;;;;;;;;;1031290;28;20033;-72
2023/11/09 01:55:26;;;;;;;0.73;0.73;;;;;;;;;;1033314;28;20033;-71
2023/11/09 01:55:57;;;;;;;1.75;1.05;;;;;;;;;;1030357;28;20750;-71
2023/11/09 01:56:27;;;;;;;3.85;3.15;;;;;;;;;;1033079;28;20092;-71
2023/11/09 01:56:58;;;;;;;2.92;1.38;;;;;;;;;;1028625;28;20054;-71
2023/11/09 01:57:29;;;;;;;1.20;1.20;;;;;;;;;;1029528;28;20076;-72
2023/11/09 01:58:00;;;;;;;0.60;0.60;;;;;;;;;;1028884;28;20064;-71
2023/11/09 01:58:33;;;;;;;1.50;1.27;;;;;;;;;;1026981;28;20319;-71
2023/11/09 01:59:04;;;;;;;0.20;0.20;;;;;;;;;;1033743;28;20036;-71
2023/11/09 01:59:37;;;;;;;0.40;0.40;;;;;;;;;;1033438;28;20060;-73
2023/11/09 02:00:09;;;;;;;0.22;0.22;;;;;;;;;;1029581;28;20117;-71
2023/11/09 02:00:41;;;;;;;1.55;1.45;;;;;;;;;;1032600;28;20398;-72
2023/11/09 02:01:13;;;;;;;0.30;0.30;;;;;;;;;;1031029;28;20041;-72
2023/11/09 02:01:45;;;;;;;0.20;0.20;;;;;;;;;;1027870;28;20030;-72
2023/11/09 02:02:15;;;;;;;0.82;0.82;;;;;;;;;;1026205;28;20399;-71
2023/11/09 02:02:48;;;;;;;0.30;0.30;;;;;;;;;;1026749;28;20031;-72
2023/11/09 02:03:19;;;;;;;2.22;1.17;;;;;;;;;;1026499;28;20117;-72
2023/11/09 02:03:50;;;;;;;0.65;0.65;;;;;;;;;;1032019;28;20646;-73
2023/11/09 02:04:21;;;;;;;0.40;0.40;;;;;;;;;;1032088;28;20041;-72
2023/11/09 02:04:53;;;;;;;2.05;0.90;;;;;;;;;;1028665;28;20154;-71
2023/11/09 02:05:23;;;;;;;3.40;1.75;;;;;;;;;;1029542;28;20089;-72
2023/11/09 02:05:55;;;;;;;0.32;0.32;;;;;;;;;;1034052;28;20689;-73
2023/11/09 02:06:26;;;;;;;1.15;1.05;;;;;;;;;;1034523;28;20029;-72
2023/11/09 02:06:56;;;;;;;2.20;2.03;;;;;;;;;;1035278;28;20025;-71
2023/11/09 02:07:28;;;;;;;2.25;2.05;;;;;;;;;;1033226;28;20107;-72
2023/11/09 02:07:58;;;;;;;0.30;0.30;;;;;;;;;;1034317;28;20492;-72
2023/11/09 02:08:29;;;;;;;0.20;0.20;;;;;;;;;;1029767;28;20026;-73
2023/11/09 02:09:00;;;;;;;0.40;0.40;;;;;;;;;;1029902;28;20040;-72
2023/11/09 02:09:32;;;;;;;1.67;1.58;;;;;;;;;;1032584;28;20041;-72
2023/11/09 02:10:03;;;;;;;1.55;1.30;;;;;;;;;;1034358;28;20417;-72
2023/11/09 02:10:33;;;;;;;0.65;0.65;;;;;;;;;;1033843;28;20045;-71
2023/11/09 02:11:05;;;;;;;0.70;0.70;;;;;;;;;;1033693;28;20029;-73
2023/11/09 02:11:35;;;;;;;2.90;2.20;;;;;;;;;;1031858;28;20068;-73
2023/11/09 02:12:09;;;;;;;0.20;0.20;;;;;;;;;;1033945;28;20026;-73
2023/11/09 02:12:41;;;;;;;0.52;0.52;;;;;;;;;;1031830;28;20029;-72
2023/11/09 02:13:11;;;;;;;0.43;0.43;;;;;;;;;;1029431;28;20040;-72
2023/11/09 02:13:42;;;;;;;0.35;0.35;;;;;;;;;;1026565;28;20030;-72
2023/11/09 02:14:13;;;;;;;0.85;0.85;;;;;;;;;;1026803;28;20042;-73
2023/11/09 02:14:44;;;;;;;0.20;0.20;;;;;;;;;;1026611;28;20037;-72
2023/11/09 02:15:14;;;;;;;0.45;0.45;;;;;;;;;;1030210;28;20588;-73
2023/11/09 02:15:45;;;;;;;0.40;0.40;;;;;;;;;;1033114;28;20034;-72
2023/11/09 02:16:15;;;;;;;0.20;0.20;;;;;;;;;;1032088;28;20124;-72
2023/11/09 02:16:47;;;;;;;0.75;0.75;;;;;;;;;;1034376;28;20083;-72
2023/11/09 02:17:17;;;;;;;1.95;1.65;;;;;;;;;;1034198;28;20030;-72
2023/11/09 02:17:48;;;;;;;1.17;1.08;;;;;;;;;;1034407;28;20040;-72
2023/11/09 02:18:22;;;;;;;1.10;0.90;;;;;;;;;;1033911;28;20029;-71
2023/11/09 02:18:52;;;;;;;0.30;0.30;;;;;;;;;;1034124;28;20063;-73
2023/11/09 02:19:25;;;;;;;2.92;1.65;;;;;;;;;;1033588;28;20095;-72
2023/11/09 02:19:55;;;;;;;1.20;1.13;;;;;;;;;;1033340;28;20515;-72
2023/11/09 02:20:26;;;;;;;10.32;2.50;;;;;;;;;;1029788;28;20097;-72
2023/11/09 02:20:57;;;;;;;1.70;1.00;;;;;;;;;;1033166;28;20045;-72
2023/11/09 02:21:28;;;;;;;1.52;1.08;;;;;;;;;;1028773;28;20088;-72
2023/11/09 02:21:59;;;;;;;0.43;0.43;;;;;;;;;;1028211;28;20027;-71
2023/11/09 02:22:32;;;;;;;1.13;1.10;;;;;;;;;;1027982;28;20506;-71
2023/11/09 02:23:04;;;;;;;0.90;0.90;;;;;;;;;;1026508;28;20209;-71
2023/11/09 02:23:37;;;;;;;0.55;0.55;;;;;;;;;;1027239;28;20042;-72
2023/11/09 02:24:11;;;;;;;5.50;1.38;;;;;;;;;;1029131;28;20110;-72
2023/11/09 02:24:46;;;;;;;0.50;0.50;;;;;;;;;;1032675;28;20504;-72
2023/11/09 02:25:17;;;;;;;0.10;0.10;;;;;;;;;;1033594;28;20065;-73
2023/11/09 02:25:51;;;;;;;0.10;0.10;;;;;;;;;;1033158;28;20040;-72
2023/11/09 02:26:24;;;;;;;1.08;1.02;;;;;;;;;;1033080;28;20026;-72
2023/11/09 02:26:57;;;;;;;0.70;0.70;;;;;;;;;;1032310;28;20033;-72
2023/11/09 02:27:28;;;;;;;0.32;0.32;;;;;;;;;;1029180;28;20665;-72
2023/11/09 02:27:59;;;;;;;0.73;0.73;;;;;;;;;;1028693;28;20131;-72
2023/11/09 02:28:31;;;;;;;0.70;0.70;;;;;;;;;;1028968;28;20030;-71
2023/11/09 02:29:02;;;;;;;0.85;0.85;;;;;;;;;;1025785;28;20475;-71
2023/11/09 02:29:34;;;;;;;0.98;0.98;;;;;;;;;;1028915;28;20022;-71
2023/11/09 02:30:05;;;;;;;0.22;0.22;;;;;;;;;;1026207;28;20415;-72
2023/11/09 02:30:35;;;;;;;0.17;0.17;;;;;;;;;;1029254;28;20034;-72
2023/11/09 02:31:06;;;;;;;0.45;0.43;;;;;;;;;;1032002;28;20053;-72
2023/11/09 02:31:36;;;;;;;0.20;0.20;;;;;;;;;;1033453;28;20030;-72
2023/11/09 02:32:07;;;;;;;3.00;1.25;;;;;;;;;;1033939;28;20341;-72
2023/11/09 02:32:38;;;;;;;0.30;0.30;;;;;;;;;;1033061;28;20069;-72
2023/11/09 02:33:09;;;;;;;0.40;0.40;;;;;;;;;;1029767;28;20032;-72
2023/11/09 02:33:40;;;;;;;0.47;0.47;;;;;;;;;;1029980;28;20070;-72
2023/11/09 02:34:11;;;;;;;1.92;1.35;;;;;;;;;;1025768;28;20033;-72
2023/11/09 02:34:41;;;;;;;0.80;0.68;;;;;;;;;;1028011;28;20029;-70
2023/11/09 02:35:12;;;;;;;0.63;0.63;;;;;;;;;;1030429;28;20390;-71
2023/11/09 02:35:43;;;;;;;0.73;0.73;;;;;;;;;;1029653;28;20150;-72
2023/11/09 02:36:14;;;;;;;1.15;1.13;;;;;;;;;;1033688;28;20036;-71
2023/11/09 02:36:44;;;;;;;0.28;0.28;;;;;;;;;;1034158;28;20113;-72
2023/11/09 02:37:15;;;;;;;0.47;0.47;;;;;;;;;;1033463;28;20409;-72
2023/11/09 02:37:45;;;;;;;0.73;0.73;;;;;;;;;;1031836;28;20076;-72
2023/11/09 02:38:17;;;;;;;1.05;0.95;;;;;;;;;;1033026;28;20045;-72
2023/11/09 02:38:50;;;;;;;0.30;0.30;;;;;;;;;;1028682;28;20085;-72
2023/11/09 02:39:21;;;;;;;2.50;1.35;;;;;;;;;;1032659;28;20522;-72
2023/11/09 02:40:03;;;;;;;0.30;0.30;;;;;;;;;;1033869;28;20018;-72
2023/11/09 02:40:36;;;;;;;1.38;0.32;;;;;;;;;;1030098;28;20083;-72
2023/11/09 02:41:08;;;;;;;3.20;2.90;;;;;;;;;;1031721;28;20034;-72
2023/11/09 02:41:42;;;;;;;1.13;1.02;;;;;;;;;;1030606;28;20029;-72
2023/11/09 02:42:13;;;;;;;1.42;1.33;;;;;;;;;;1029124;28;20037;-72
2023/11/09 02:42:43;;;;;;;0.40;0.40;;;;;;;;;;1027690;28;20068;-72
2023/11/09 02:43:15;;;;;;;9.20;1.25;;;;;;;;;;1029679;28;20101;-72
2023/11/09 02:43:48;;;;;;;0.20;0.20;;;;;;;;;;1027040;28;20565;-72
2023/11/09 02:44:20;;;;;;;4.38;1.95;;;;;;;;;;1023153;28;20143;-71
2023/11/09 02:44:52;;;;;;;0.85;0.65;;;;;;;;;;1024873;28;20023;-72
2023/11/09 02:45:23;;;;;;;1.50;1.13;;;;;;;;;;1020411;28;20058;-72
2023/11/09 02:45:57;;;;;;;3.42;1.65;;;;;;;;;;1024301;28;20470;-71
2023/11/09 02:46:30;;;;;;;0.85;0.85;;;;;;;;;;1028843;28;20105;-73
2023/11/09 02:47:01;;;;;;;1.75;1.65;;;;;;;;;;1029999;28;20437;-72
2023/11/09 02:47:32;;;;;;;0.52;0.52;;;;;;;;;;1026295;28;20042;-72
2023/11/09 02:48:04;;;;;;;0.32;0.32;;;;;;;;;;1030742;28;20457;-72
2023/11/09 02:48:35;;;;;;;2.95;2.10;;;;;;;;;;1030642;28;20076;-71
2023/11/09 02:49:06;;;;;;;0.50;0.50;;;;;;;;;;1031033;28;20571;-72
2023/11/09 02:49:38;;;;;;;0.10;0.10;;;;;;;;;;1028054;28;20034;-72
2023/11/09 02:50:09;;;;;;;0.13;0.13;;;;;;;;;;1025004;28;20656;-72
2023/11/09 02:50:39;;;;;;;6.43;2.05;;;;;;;;;;1021993;28;20503;-72
2023/11/09 02:51:10;;;;;;;1.85;0.73;;;;;;;;;;1028679;28;20577;-72
2023/11/09 02:51:54;;;;;;;2.00;1.58;;;;;;;;;;1028709;28;20038;-73
2023/11/09 02:52:25;;;;;;;0.57;0.57;;;;;;;;;;1030813;28;20038;-72
2023/11/09 02:52:57;;;;;;;1.15;1.05;;;;;;;;;;1028289;28;20073;-71
2023/11/09 02:53:32;;;;;;;0.45;0.45;;;;;;;;;;1029921;28;20041;-71
2023/11/09 02:54:04;;;;;;;0.10;0.10;;;;;;;;;;1028460;28;20048;-72
2023/11/09 02:54:37;;;;;;;0.70;0.70;;;;;;;;;;1024815;28;20035;-73
2023/11/09 02:55:08;;;;;;;1.65;1.45;;;;;;;;;;1022962;28;20498;-72
2023/11/09 02:55:39;;;;;;;1.33;0.52;;;;;;;;;;1020811;28;20347;-71
2023/11/09 02:56:11;;;;;;;0.55;0.45;;;;;;;;;;1023797;28;20030;-72
2023/11/09 02:56:43;;;;;;;0.63;0.63;;;;;;;;;;1024789;28;20125;-72
2023/11/09 02:57:49;;;;;;;1.63;1.42;;;;;;;;;;1029354;28;20030;-72
2023/11/09 02:58:40;;;;;;;0.10;0.10;;;;;;;;;;1032408;28;20521;-74
2023/11/09 02:59:27;;;;;;;0.52;0.35;;;;;;;;;;1030727;28;20112;-73
2023/11/09 02:59:59;;;;;;;0.20;0.20;;;;;;;;;;1032156;28;20041;-73
2023/11/09 03:00:30;;;;;;;0.30;0.30;;;;;;;;;;1026710;28;20030;-72
2023/11/09 03:01:05;;;;;;;2.25;2.15;;;;;;;;;;1029284;28;21007;-73
2023/11/09 03:01:37;;;;;;;0.10;0.10;;;;;;;;;;1031238;28;20136;-72
2023/11/09 03:02:08;;;;;;;0.15;0.15;;;;;;;;;;1026510;28;20027;-72
2023/11/09 03:02:39;;;;;;;3.30;0.63;;;;;;;;;;1026051;28;20037;-72
2023/11/09 03:03:17;;;;;;;0.68;0.68;;;;;;;;;;1028106;28;20042;-72
2023/11/09 03:03:52;;;;;;;0.10;0.10;;;;;;;;;;1029541;28;20644;-72
2023/11/09 03:04:22;;;;;;;0.40;0.40;;;;;;;;;;1031710;28;20448;-72
2023/11/09 03:04:54;;;;;;;0.35;0.35;;;;;;;;;;1030259;28;20156;-73
2023/11/09 03:05:26;;;;;;;0.10;0.10;;;;;;;;;;1028167;28;20387;-73
2023/11/09 03:05:58;;;;;;;0.25;0.25;;;;;;;;;;1029934;28;20057;-72
2023/11/09 03:06:29;;;;;;;1.33;1.33;;;;;;;;;;1031896;28;20146;-72
2023/11/09 03:07:07;;;;;;;5.15;0.77;;;;;;;;;;1025294;28;20065;-71
2023/11/09 03:07:43;;;;;;;0.55;0.47;;;;;;;;;;1023101;28;20066;-73
2023/11/09 03:08:15;;;;;;;2.53;0.95;;;;;;;;;;1024474;28;20409;-71
2023/11/09 03:08:48;;;;;;;0.57;0.57;;;;;;;;;;1030591;28;20031;-72
2023/11/09 03:09:19;;;;;;;0.20;0.20;;;;;;;;;;1033463;28;20065;-72